Time;durP1;ratioP1;P1;durP2;ratioP2;P2;SDS_P1;SDS_P2;PMS_P1;PMS_P2;Temp;Humidity;BMP_temperature;BMP_pressure;BME280_temperature;BME280_humidity;BME280_pressure;Samples;Min_cycle;Max_cycle;Signal;HPM_P1;HPM_P2
2022/01/24 00:00:24;;;;;;;5.77;3.50;;;1.50;99.90;0.90;98040.00;;;;5062983;28;20462;-74
2022/01/24 00:03:13;;;;;;;2.17;1.53;;;1.50;99.90;0.90;98028.00;;;;5046909;28;20438;-74
2022/01/24 00:06:02;;;;;;;5.63;2.30;;;1.40;99.90;1.20;98033.00;;;;5053529;28;20799;-75
2022/01/24 00:08:53;;;;;;;2.47;1.87;;;1.50;99.90;1.10;98036.00;;;;5045786;28;20453;-74
2022/01/24 00:11:46;;;;;;;2.93;1.60;;;1.50;99.90;0.70;98027.00;;;;5049373;28;20961;-74
2022/01/24 00:15:00;;;;;;;3.50;2.40;;;1.40;99.90;0.70;98029.00;;;;5045915;28;21922;-74
2022/01/24 00:17:51;;;;;;;4.37;2.07;;;1.40;99.90;1.10;98028.00;;;;5046812;28;20442;-74
2022/01/24 00:26:54;;;;;;;2.00;1.70;;;1.50;99.90;1.40;98045.00;;;;5036287;28;20431;-74
2022/01/24 00:29:43;;;;;;;1.50;1.13;;;1.50;99.90;1.20;98047.00;;;;5042726;28;20426;-74
2022/01/24 00:32:32;;;;;;;2.67;1.47;;;1.60;99.90;1.10;98032.00;;;;5057228;28;20792;-74
2022/01/24 00:35:21;;;;;;;2.90;1.37;;;1.50;99.90;0.90;98042.00;;;;5043295;28;20996;-74
2022/01/24 00:38:10;;;;;;;3.07;1.63;;;1.50;99.90;0.90;98039.00;;;;5049765;28;20526;-74
2022/01/24 00:40:59;;;;;;;3.60;1.37;;;1.50;99.90;1.00;98035.00;;;;5042324;28;20463;-74
2022/01/24 00:44:05;;;;;;;2.80;1.33;;;1.40;99.90;1.00;98036.00;;;;5053061;28;20436;-74
2022/01/24 00:46:58;;;;;;;2.90;1.10;;;1.40;99.90;1.30;98036.00;;;;5045800;28;20542;-74
2022/01/24 00:53:16;;;;;;;0.97;0.73;;;1.50;99.90;1.20;98049.00;;;;5059308;28;21538;-74
2022/01/24 00:56:05;;;;;;;2.27;1.37;;;1.50;99.90;1.20;98046.00;;;;5060382;28;20933;-74
2022/01/24 00:58:56;;;;;;;3.40;1.40;;;1.50;99.90;1.40;98046.00;;;;5063574;28;20968;-74
2022/01/24 01:01:44;;;;;;;2.10;1.53;;;1.60;99.90;1.40;98053.00;;;;5059759;28;20468;-74
2022/01/24 01:04:42;;;;;;;1.70;1.10;;;1.60;99.90;1.50;98050.00;;;;5061797;28;20950;-74
2022/01/24 01:07:38;;;;;;;3.17;0.97;;;1.60;99.90;1.60;98044.00;;;;5064041;28;20449;-73
2022/01/24 01:19:48;;;;;;;2.50;1.80;;;1.80;99.90;1.50;98035.00;;;;5062949;28;20539;-75
2022/01/24 01:22:37;;;;;;;1.50;1.30;;;1.80;99.90;1.50;98030.00;;;;5058622;28;20474;-75
2022/01/24 01:25:26;;;;;;;1.90;1.30;;;1.80;99.90;1.60;98035.00;;;;5061802;28;20422;-75
2022/01/24 01:28:16;;;;;;;2.50;1.10;;;1.80;99.90;1.70;98023.00;;;;5052934;28;20449;-75
2022/01/24 01:31:11;;;;;;;4.20;1.43;;;1.80;99.90;1.70;98010.00;;;;5063136;28;20434;-75
2022/01/24 01:34:09;;;;;;;1.13;1.00;;;1.80;99.90;1.40;98011.00;;;;5062611;28;20438;-75
2022/01/24 01:37:25;;;;;;;2.50;1.30;;;1.80;99.90;1.30;98009.00;;;;5061913;28;20430;-75
2022/01/24 01:52:15;;;;;;;1.43;0.93;;;1.80;99.90;1.40;98004.00;;;;5055874;28;20419;-75
2022/01/24 01:53:18;;;;;;;1.07;0.80;;;1.70;99.90;1.50;98012.00;;;;5078200;22;20524;-83
2022/01/24 01:56:07;;;;;;;1.10;1.10;;;1.70;99.90;1.20;98010.00;;;;5084822;28;20434;-83
2022/01/24 01:58:56;;;;;;;3.73;1.50;;;1.70;99.90;1.30;98012.00;;;;5078499;28;20835;-83
2022/01/24 02:01:45;;;;;;;1.17;1.07;;;1.60;99.90;1.30;98010.00;;;;5083950;28;20476;-83
2022/01/24 02:04:34;;;;;;;1.97;1.13;;;1.60;99.90;1.40;98008.00;;;;5082616;28;20422;-83
2022/01/24 02:07:24;;;;;;;1.37;1.23;;;1.60;99.90;1.40;98013.00;;;;5093811;28;20797;-83
2022/01/24 02:10:13;;;;;;;2.37;1.80;;;1.60;99.90;1.30;98014.00;;;;5101464;28;20426;-83
2022/01/24 02:13:03;;;;;;;2.07;1.70;;;1.60;99.90;1.40;98007.00;;;;5080824;28;20860;-83
2022/01/24 02:16:00;;;;;;;2.27;1.10;;;1.60;99.90;1.30;98002.00;;;;5091883;28;20414;-83
2022/01/24 02:19:03;;;;;;;1.40;1.17;;;1.60;99.90;1.10;98005.00;;;;5083823;28;20426;-83
2022/01/24 02:22:27;;;;;;;2.07;1.13;;;1.50;99.90;1.00;98010.00;;;;5091374;28;20535;-83
2022/01/24 02:25:27;;;;;;;2.53;1.10;;;1.50;99.90;1.20;98008.00;;;;5083963;28;20810;-83
2022/01/24 02:28:18;;;;;;;1.00;0.90;;;1.50;99.90;1.20;98007.00;;;;5082498;28;20474;-83
2022/01/24 02:31:22;;;;;;;1.07;0.80;;;1.50;99.90;1.30;98016.00;;;;5093467;28;20903;-83
2022/01/24 02:34:33;;;;;;;2.03;1.30;;;1.50;99.90;1.40;98021.00;;;;5088240;28;20425;-83
2022/01/24 02:37:24;;;;;;;1.57;1.27;;;1.50;99.90;1.50;98012.00;;;;5090317;28;20418;-83
2022/01/24 02:40:16;;;;;;;1.83;1.37;;;1.60;99.90;1.30;98002.00;;;;5088481;28;20425;-83
2022/01/24 02:49:14;;;;;;;1.37;1.27;;;1.60;99.90;1.40;98012.00;;;;5090189;28;20804;-83
2022/01/24 02:52:07;;;;;;;1.30;1.20;;;1.60;99.90;1.20;97996.00;;;;5090229;27;20458;-82
2022/01/24 02:54:57;;;;;;;1.47;1.13;;;1.60;99.90;1.30;98009.00;;;;5084923;28;20988;-83
2022/01/24 02:57:46;;;;;;;0.90;0.80;;;1.60;99.90;1.30;98004.00;;;;5083931;28;20430;-82
2022/01/24 03:00:37;;;;;;;1.53;1.30;;;1.60;99.90;1.40;98007.00;;;;5082743;28;20432;-82
2022/01/24 03:03:27;;;;;;;2.67;1.20;;;1.50;99.90;1.40;98002.00;;;;5083698;28;20469;-82
2022/01/24 03:06:16;;;;;;;4.43;1.60;;;1.60;99.90;1.30;98009.00;;;;5081147;28;20787;-82
2022/01/24 03:09:07;;;;;;;4.07;1.17;;;1.60;99.90;1.30;98007.00;;;;5079268;28;20463;-82
2022/01/24 03:12:03;;;;;;;1.50;1.20;;;1.50;99.90;1.30;98006.00;;;;5086405;28;20521;-82
2022/01/24 03:14:52;;;;;;;1.43;1.20;;;1.60;99.90;1.30;98004.00;;;;5088470;28;20470;-82
2022/01/24 03:17:42;;;;;;;2.60;1.20;;;1.60;99.90;1.30;98009.00;;;;5089941;27;20805;-82
2022/01/24 03:20:31;;;;;;;1.33;1.00;;;1.60;99.90;1.40;98012.00;;;;5085531;28;20422;-82
2022/01/24 03:23:23;;;;;;;4.67;1.70;;;1.60;99.90;1.30;98018.00;;;;5087783;28;20477;-82
2022/01/24 03:26:12;;;;;;;2.10;0.90;;;1.60;99.90;1.10;98010.00;;;;5076192;28;20418;-82
2022/01/24 03:29:02;;;;;;;2.50;1.37;;;1.50;99.90;1.10;98009.00;;;;5086789;28;20936;-82
2022/01/24 03:31:51;;;;;;;1.30;1.00;;;1.50;99.90;1.20;98014.00;;;;5088147;28;20461;-82
2022/01/24 03:34:40;;;;;;;1.23;0.83;;;1.40;99.90;1.20;98012.00;;;;5088044;28;20453;-82
2022/01/24 03:37:29;;;;;;;3.63;1.23;;;1.40;99.90;1.20;98002.00;;;;5088343;28;20466;-82
2022/01/24 03:40:18;;;;;;;1.60;1.00;;;1.40;99.90;1.00;98010.00;;;;5083318;28;20959;-82
2022/01/24 03:43:07;;;;;;;4.30;3.87;;;1.40;99.90;0.90;98008.00;;;;5084668;28;20471;-83
2022/01/24 03:46:12;;;;;;;5.47;4.30;;;2.20;99.90;1.30;98010.00;;;;5083485;28;20421;-82
2022/01/24 03:49:19;;;;;;;7.13;4.20;;;1.40;99.90;1.40;98002.00;;;;5085314;28;20501;-82
2022/01/24 03:52:08;;;;;;;7.77;6.03;;;1.50;99.90;1.50;98014.00;;;;5077408;28;20457;-82
2022/01/24 03:55:00;;;;;;;8.00;6.10;;;1.60;99.90;1.60;98008.00;;;;5084757;28;20457;-82
2022/01/24 03:57:49;;;;;;;8.70;7.33;;;1.70;99.90;1.70;98009.00;;;;5077110;28;20422;-82
2022/01/24 04:00:37;;;;;;;13.33;7.50;;;1.80;99.90;1.80;98016.00;;;;5085310;28;20438;-82
2022/01/24 04:03:28;;;;;;;12.57;7.77;;;1.80;99.90;1.80;98025.00;;;;5081394;28;20476;-82
2022/01/24 04:06:17;;;;;;;11.10;8.37;;;1.90;99.90;1.80;98023.00;;;;5083968;28;20441;-83
2022/01/24 04:09:06;;;;;;;8.87;7.60;;;1.90;99.90;1.80;98016.00;;;;5086475;28;20436;-82
2022/01/24 04:11:57;;;;;;;8.07;5.73;;;1.90;99.90;1.80;98025.00;;;;5087075;28;20450;-82
2022/01/24 04:15:07;;;;;;;10.20;7.40;;;1.90;99.90;1.80;98035.00;;;;5087830;28;20448;-83
2022/01/24 04:18:25;;;;;;;6.73;5.80;;;1.90;99.90;1.80;98023.00;;;;5087280;28;20797;-82
2022/01/24 04:21:25;;;;;;;8.93;7.50;;;2.00;99.90;1.80;98036.00;;;;5085229;28;20457;-82
2022/01/24 04:24:19;;;;;;;7.10;6.17;;;2.00;99.90;1.60;98049.00;;;;5087339;28;20545;-82
2022/01/24 04:27:09;;;;;;;13.67;7.20;;;2.00;99.90;1.60;98054.00;;;;5078134;28;20434;-82
2022/01/24 04:29:59;;;;;;;11.93;8.23;;;1.90;99.90;1.50;98046.00;;;;5085904;28;20433;-82
2022/01/24 04:32:48;;;;;;;8.83;7.70;;;1.90;99.90;1.60;98050.00;;;;5089058;28;20452;-82
2022/01/24 04:35:37;;;;;;;11.23;8.27;;;1.90;99.90;1.30;98052.00;;;;5086994;28;20430;-82
2022/01/24 04:38:27;;;;;;;12.67;8.77;;;1.90;99.90;1.40;98049.00;;;;5085633;28;20449;-82
2022/01/24 04:41:20;;;;;;;11.17;9.47;;;1.80;99.90;1.40;98062.00;;;;5086115;28;20831;-82
2022/01/24 04:44:18;;;;;;;10.80;9.13;;;1.80;99.90;1.40;98059.00;;;;5081329;28;20473;-82
2022/01/24 04:47:18;;;;;;;12.67;9.93;;;1.80;99.90;1.40;98059.00;;;;5084849;28;20434;-82
2022/01/24 04:50:38;;;;;;;11.07;9.07;;;1.80;99.90;1.40;98062.00;;;;5083018;28;20976;-82
2022/01/24 04:56:35;;;;;;;16.47;9.80;;;1.80;99.90;1.60;98072.00;;;;5083345;28;20487;-82
2022/01/24 04:59:26;;;;;;;10.30;9.17;;;1.70;99.90;1.40;98072.00;;;;5083562;28;20413;-82
2022/01/24 05:02:15;;;;;;;12.67;10.33;;;1.70;99.90;1.50;98072.00;;;;5091381;28;20457;-82
2022/01/24 05:05:11;;;;;;;13.80;10.17;;;1.70;99.90;1.50;98074.00;;;;5090669;28;20422;-83
2022/01/24 05:08:04;;;;;;;15.20;11.00;;;1.70;99.90;1.60;98080.00;;;;5094879;28;20425;-83
2022/01/24 05:11:02;;;;;;;16.27;12.07;;;1.70;99.90;1.60;98080.00;;;;5098481;28;20842;-83
2022/01/24 05:23:30;;;;;;;16.97;12.57;;;1.70;99.90;1.60;98092.00;;;;5087837;28;20999;-83
2022/01/24 05:26:21;;;;;;;14.80;12.93;;;1.80;99.90;1.50;98089.00;;;;5077228;28;20430;-83
2022/01/24 05:29:10;;;;;;;16.67;13.60;;;1.70;99.90;1.50;98102.00;;;;5098246;28;20420;-84
2022/01/24 05:31:59;;;;;;;19.53;12.70;;;1.70;99.90;1.50;98100.00;;;;5095256;28;20454;-83
2022/01/24 05:34:48;;;;;;;17.03;12.60;;;1.70;99.90;1.50;98103.00;;;;5094370;28;20440;-83
2022/01/24 05:37:37;;;;;;;15.23;12.40;;;1.70;99.90;1.50;98101.00;;;;5088481;28;20436;-83
2022/01/24 05:40:26;;;;;;;16.83;13.07;;;1.70;99.90;1.50;98111.00;;;;5086870;28;20409;-83
2022/01/24 05:43:17;;;;;;;18.70;12.80;;;1.70;99.90;1.40;98105.00;;;;5089209;28;20917;-83
2022/01/24 05:46:05;;;;;;;14.13;12.60;;;1.10;99.90;1.30;98103.00;;;;5092541;28;20429;-82
2022/01/24 05:48:54;;;;;;;15.03;12.93;;;1.70;99.90;1.30;98109.00;;;;5099294;28;20418;-82
2022/01/24 05:51:43;;;;;;;19.30;15.43;;;1.60;99.90;1.20;98112.00;;;;5095304;28;20838;-82
2022/01/24 05:54:32;;;;;;;16.73;13.63;;;1.60;99.90;0.90;98109.00;;;;5098889;28;20435;-85
2022/01/24 05:57:21;;;;;;;18.57;14.07;;;1.60;99.90;0.80;98114.00;;;;5087936;28;20422;-84
2022/01/24 06:00:14;;;;;;;21.10;16.70;;;1.50;99.90;0.90;98100.00;;;;5092905;28;20459;-84
2022/01/24 06:03:04;;;;;;;20.73;16.87;;;1.50;99.90;1.00;98111.00;;;;5099092;28;20445;-84
2022/01/24 06:05:53;;;;;;;20.50;17.13;;;1.40;99.90;0.90;98123.00;;;;5090418;28;20425;-83
2022/01/24 06:08:42;;;;;;;22.53;18.00;;;1.40;99.90;0.80;98119.00;;;;5102407;28;20832;-83
2022/01/24 06:11:30;;;;;;;26.63;17.40;;;1.40;99.90;0.90;98119.00;;;;5099068;28;20951;-83
2022/01/24 06:14:20;;;;;;;24.93;17.40;;;1.40;99.90;0.90;98114.00;;;;5100359;28;20449;-82
2022/01/24 06:17:11;;;;;;;24.77;17.60;;;1.40;99.90;0.90;98119.00;;;;5098982;28;20441;-82
2022/01/24 06:20:00;;;;;;;30.47;18.67;;;1.40;99.90;0.90;98125.00;;;;5100431;28;20426;-82
2022/01/24 06:22:49;;;;;;;21.40;15.87;;;1.30;99.90;0.80;98116.00;;;;5099250;27;20955;-83
2022/01/24 06:25:37;;;;;;;23.40;16.73;;;1.40;99.90;0.70;98119.00;;;;5085900;27;20955;-83
2022/01/24 06:28:29;;;;;;;28.37;19.40;;;1.30;99.90;0.50;98121.00;;;;5100006;27;20469;-83
2022/01/24 06:31:19;;;;;;;30.00;19.90;;;1.30;99.90;0.60;98124.00;;;;5100946;28;20454;-83
2022/01/24 06:34:10;;;;;;;31.63;20.13;;;1.20;99.90;0.60;98125.00;;;;5098877;28;20437;-82
2022/01/24 06:36:58;;;;;;;17.10;12.00;;;1.20;99.90;0.20;98118.00;;;;5100071;27;20426;-85
2022/01/24 06:39:47;;;;;;;32.77;21.87;;;1.10;99.90;0.40;98116.00;;;;5096941;28;20433;-85
2022/01/24 06:42:38;;;;;;;26.23;19.23;;;1.10;99.90;0.50;98119.00;;;;5093678;28;20446;-85
2022/01/24 06:45:27;;;;;;;31.60;19.30;;;1.00;99.90;0.60;98131.00;;;;5099456;28;20469;-85
2022/01/24 06:48:16;;;;;;;26.40;18.73;;;1.00;99.90;0.50;98142.00;;;;5097323;28;20457;-84
2022/01/24 06:51:10;;;;;;;29.47;20.13;;;1.00;99.90;0.40;98125.00;;;;5085473;28;20814;-85
2022/01/24 06:53:59;;;;;;;34.47;23.27;;;1.00;99.90;0.20;98139.00;;;;5120943;28;20466;-85
2022/01/24 06:56:48;;;;;;;34.47;20.83;;;1.00;99.90;0.50;98144.00;;;;5109103;28;20449;-85
2022/01/24 06:59:37;;;;;;;31.63;20.43;;;1.00;99.90;0.40;98141.00;;;;5106510;28;20484;-84
2022/01/24 07:02:25;;;;;;;28.57;19.77;;;0.90;99.90;0.40;98142.00;;;;5092668;28;20468;-84
2022/01/24 07:05:14;;;;;;;29.57;21.07;;;0.90;99.90;0.40;98153.00;;;;5092457;28;20999;-84
2022/01/24 07:08:05;;;;;;;29.70;20.83;;;0.90;99.90;0.60;98156.00;;;;5093244;28;20459;-84
2022/01/24 07:10:54;;;;;;;33.13;21.70;;;1.00;99.90;0.70;98144.00;;;;5092067;28;20919;-84
2022/01/24 07:13:43;;;;;;;36.57;19.93;;;1.00;99.90;0.80;98163.00;;;;5090506;28;20436;-84
2022/01/24 07:16:48;;;;;;;35.60;21.40;;;1.00;99.90;0.90;98169.00;;;;5084822;28;20429;-85
2022/01/24 07:19:37;;;;;;;32.17;20.50;;;1.00;99.90;1.00;98175.00;;;;5091410;28;20426;-84
2022/01/24 07:22:26;;;;;;;35.00;21.10;;;1.10;99.90;1.00;98165.00;;;;5092113;28;20449;-84
2022/01/24 07:25:17;;;;;;;42.17;22.70;;;1.10;99.90;1.00;98180.00;;;;5087719;27;20473;-84
2022/01/24 07:28:06;;;;;;;33.73;21.33;;;1.20;99.90;1.10;98178.00;;;;5090679;28;20421;-82
2022/01/24 07:30:54;;;;;;;32.77;22.63;;;1.20;99.90;1.00;98181.00;;;;5083977;28;20936;-82
2022/01/24 07:33:43;;;;;;;33.00;20.47;;;1.20;99.90;1.10;98185.00;;;;5082961;28;20427;-82
2022/01/24 07:36:32;;;;;;;37.10;22.23;;;1.20;99.90;1.10;98198.00;;;;5091583;28;20422;-82
2022/01/24 07:39:21;;;;;;;39.07;22.67;;;1.20;99.90;1.10;98194.00;;;;5092131;28;20931;-82
2022/01/24 07:42:17;;;;;;;38.97;20.53;;;1.30;99.90;1.10;98204.00;;;;5080158;28;20997;-82
2022/01/24 07:45:06;;;;;;;34.73;21.17;;;1.30;99.90;1.10;98211.00;;;;5087737;28;20498;-82
2022/01/24 07:47:55;;;;;;;35.23;19.57;;;1.30;99.90;1.10;98215.00;;;;5089113;28;20426;-82
2022/01/24 07:50:46;;;;;;;29.63;18.83;;;1.30;99.90;1.00;98216.00;;;;5086938;28;20432;-82
2022/01/24 07:53:36;;;;;;;28.30;18.67;;;1.30;99.90;0.90;98220.00;;;;5082737;28;20511;-82
2022/01/24 07:56:29;;;;;;;18.43;14.77;;;1.20;99.90;0.90;98224.00;;;;5090102;28;20424;-82
2022/01/24 07:59:20;;;;;;;24.17;14.23;;;1.20;99.90;0.90;98228.00;;;;5090183;28;20806;-82
2022/01/24 08:02:09;;;;;;;16.30;13.37;;;1.20;99.90;0.70;98220.00;;;;5091640;27;20842;-82
2022/01/24 08:04:58;;;;;;;25.70;13.80;;;1.10;99.90;0.70;98240.00;;;;5109838;28;20829;-82
2022/01/24 08:07:47;;;;;;;20.90;13.23;;;1.10;99.90;0.70;98229.00;;;;5109972;28;20447;-82
2022/01/24 08:10:36;;;;;;;22.47;14.37;;;1.00;99.90;0.70;98232.00;;;;5084978;28;20434;-82
2022/01/24 08:13:25;;;;;;;23.57;14.47;;;1.00;99.90;0.60;98224.00;;;;5084475;28;20445;-83
2022/01/24 08:16:16;;;;;;;26.93;14.57;;;1.00;99.90;0.50;98226.00;;;;5089422;28;20975;-82
2022/01/24 08:19:05;;;;;;;19.87;14.00;;;0.90;99.90;0.00;98230.00;;;;5089804;28;20426;-81
2022/01/24 08:21:54;;;;;;;17.97;13.53;;;0.80;99.90;0.10;98230.00;;;;5090209;28;20818;-82
2022/01/24 08:24:43;;;;;;;20.07;13.53;;;0.70;99.90;0.30;98230.00;;;;5086255;28;20487;-82
2022/01/24 08:27:33;;;;;;;20.80;13.03;;;0.70;99.90;0.40;98238.00;;;;5090383;28;20429;-82
2022/01/24 08:30:25;;;;;;;16.67;11.50;;;0.70;99.90;-0.10;98236.00;;;;5089553;28;20437;-82
2022/01/24 08:33:15;;;;;;;14.97;10.83;;;0.60;99.90;-0.30;98238.00;;;;5090304;28;20442;-82
2022/01/24 08:36:05;;;;;;;17.60;11.60;;;0.50;99.90;-0.20;98248.00;;;;5090508;28;20417;-82
2022/01/24 08:38:56;;;;;;;15.43;11.03;;;0.40;99.90;0.00;98241.00;;;;5090980;28;20426;-82
2022/01/24 08:41:58;;;;;;;17.70;11.30;;;0.40;99.90;-0.10;98253.00;;;;5088930;28;20473;-82
2022/01/24 08:47:57;;;;;;;13.63;10.13;;;0.30;99.90;-0.20;98256.00;;;;5089866;28;20485;-82
2022/01/24 08:50:52;;;;;;;13.60;8.70;;;0.30;99.90;-0.20;98262.00;;;;5089588;28;20963;-82
2022/01/24 08:53:44;;;;;;;13.30;10.63;;;0.30;99.90;-0.50;98256.00;;;;5088421;28;20433;-82
2022/01/24 08:56:34;;;;;;;12.17;9.13;;;0.30;99.90;-0.50;98258.00;;;;5081683;28;20644;-82
2022/01/24 08:59:23;;;;;;;13.73;8.47;;;0.20;99.90;-0.50;98260.00;;;;5079988;28;20417;-82
2022/01/24 09:02:12;;;;;;;15.97;10.87;;;0.10;99.90;-0.60;98262.00;;;;5078790;28;20449;-81
2022/01/24 09:05:01;;;;;;;13.27;10.80;;;0.10;99.90;-0.30;98267.00;;;;5082579;28;20453;-81
2022/01/24 09:07:52;;;;;;;16.20;10.73;;;0.10;99.90;-0.10;98269.00;;;;5093627;28;20429;-82
2022/01/24 09:10:54;;;;;;;13.40;9.67;;;0.10;99.90;-0.10;98280.00;;;;5094629;28;20418;-82
2022/01/24 09:13:43;;;;;;;15.43;10.93;;;0.20;99.90;-0.10;98291.00;;;;5083511;28;20517;-82
2022/01/24 09:16:32;;;;;;;12.93;9.53;;;0.20;99.90;0.10;98290.00;;;;5092967;28;20426;-82
2022/01/24 09:19:22;;;;;;;12.43;10.20;;;0.20;99.90;0.20;98290.00;;;;5092357;28;20461;-82
2022/01/24 09:22:11;;;;;;;14.27;11.63;;;0.30;99.90;0.10;98301.00;;;;5092760;28;20453;-82
2022/01/24 09:25:02;;;;;;;12.43;9.73;;;0.30;99.90;0.10;98307.00;;;;5089450;28;20468;-82
2022/01/24 09:27:51;;;;;;;15.10;11.13;;;0.40;99.90;0.20;98301.00;;;;5113282;28;20420;-82
2022/01/24 09:30:40;;;;;;;14.70;10.27;;;0.40;99.90;0.20;98309.00;;;;5114069;28;20432;-82
2022/01/24 09:33:30;;;;;;;12.70;9.63;;;0.40;99.90;0.20;98309.00;;;;5116392;28;20424;-82
2022/01/24 09:36:19;;;;;;;14.00;10.67;;;0.40;99.90;0.20;98309.00;;;;5102393;28;20794;-82
2022/01/24 09:39:08;;;;;;;15.03;9.30;;;0.40;99.90;0.20;98315.00;;;;5094376;28;20426;-82
2022/01/24 09:41:58;;;;;;;16.00;11.03;;;0.50;99.90;0.00;98317.00;;;;5092041;28;20449;-82
2022/01/24 09:44:52;;;;;;;15.17;12.37;;;0.40;99.90;-0.40;98301.00;;;;5092402;28;20421;-82
2022/01/24 09:47:41;;;;;;;13.90;9.87;;;0.30;99.90;-0.30;98315.00;;;;5082565;28;20429;-82
2022/01/24 09:50:31;;;;;;;13.17;9.77;;;0.20;99.90;-0.40;98319.00;;;;5093717;28;20433;-83
2022/01/24 09:53:21;;;;;;;14.70;11.00;;;0.20;99.90;-0.20;98311.00;;;;5094815;28;20456;-82
2022/01/24 09:56:10;;;;;;;16.27;11.50;;;0.30;99.90;-0.20;98317.00;;;;5088518;28;20445;-82
2022/01/24 09:59:01;;;;;;;14.23;9.93;;;0.20;99.90;-0.30;98312.00;;;;5080355;28;20486;-82
2022/01/24 10:01:50;;;;;;;9.70;8.63;;;0.10;99.90;-0.50;98330.00;;;;5093036;28;20891;-82
2022/01/24 10:04:40;;;;;;;15.40;11.77;;;0.10;99.90;-0.50;98329.00;;;;5091664;28;20431;-82
2022/01/24 10:07:29;;;;;;;15.83;10.67;;;0.00;99.90;-0.50;98320.00;;;;5092301;28;20445;-82
2022/01/24 10:10:29;;;;;;;13.37;10.50;;;0.00;99.90;-0.60;98329.00;;;;5091989;28;20461;-82
2022/01/24 10:16:43;;;;;;;16.87;11.20;;;0.00;99.90;-0.60;98325.00;;;;5084260;28;20777;-82
2022/01/24 10:19:32;;;;;;;10.20;9.00;;;0.00;99.90;-0.40;98309.00;;;;5087153;28;20448;-82
2022/01/24 10:22:26;;;;;;;18.70;12.63;;;-0.10;99.90;-0.30;98315.00;;;;5080571;28;21005;-82
2022/01/24 10:25:15;;;;;;;17.37;11.67;;;0.00;99.90;-0.40;98312.00;;;;5084245;28;20461;-82
2022/01/24 10:28:06;;;;;;;15.90;10.80;;;0.00;99.90;-0.40;98307.00;;;;5098673;28;20433;-83
2022/01/24 10:31:09;;;;;;;13.00;10.37;;;0.00;99.90;-0.70;98308.00;;;;5113891;28;20443;-82
2022/01/24 10:34:06;;;;;;;12.90;9.73;;;-0.10;99.90;-0.90;98302.00;;;;5111890;28;20428;-83
2022/01/24 10:36:56;;;;;;;18.30;11.20;;;-0.10;99.90;-0.50;98301.00;;;;5094919;28;20437;-82
2022/01/24 10:39:55;;;;;;;19.27;12.40;;;-0.10;99.90;-0.40;98298.00;;;;5092991;28;20440;-82
2022/01/24 10:42:54;;;;;;;16.07;11.27;;;-0.10;99.90;-0.30;98304.00;;;;5092876;28;20464;-83
2022/01/24 10:45:45;;;;;;;14.53;9.97;;;-0.10;99.90;-0.20;98316.00;;;;5093309;27;20466;-83
2022/01/24 10:48:39;;;;;;;15.47;8.90;;;0.00;99.90;-0.20;98311.00;;;;5092921;28;20457;-83
2022/01/24 10:51:29;;;;;;;18.23;11.23;;;0.20;99.90;-0.10;98314.00;;;;5090123;28;20801;-85
2022/01/24 10:54:29;;;;;;;13.57;9.73;;;0.10;99.90;-0.10;98324.00;;;;5098754;28;21052;-84
2022/01/24 10:57:29;;;;;;;17.30;11.10;;;0.10;99.90;-0.10;98320.00;;;;5111344;28;20494;-83
2022/01/24 11:00:23;;;;;;;16.97;10.00;;;0.20;99.90;-0.10;98319.00;;;;5112321;28;20427;-84
2022/01/24 11:03:18;;;;;;;15.23;11.27;;;0.10;99.90;-0.10;98325.00;;;;5112849;28;20465;-83
2022/01/24 11:06:07;;;;;;;16.07;10.23;;;0.30;99.90;-0.10;98335.00;;;;5111695;27;20453;-83
2022/01/24 11:11:52;;;;;;;18.33;10.97;;;0.20;99.90;0.00;98327.00;;;;5101980;27;21065;-73
2022/01/24 11:14:44;;;;;;;12.10;10.20;;;0.20;99.90;0.00;98325.00;;;;5122180;27;20430;-73
2022/01/24 11:17:35;;;;;;;15.23;10.10;;;0.20;99.90;-0.40;98313.00;;;;5114643;27;20447;-73
2022/01/24 11:20:29;;;;;;;11.80;9.07;;;0.20;99.90;-0.10;98325.00;;;;5125002;27;20428;-73
2022/01/24 11:23:21;;;;;;;15.00;11.63;;;0.20;99.90;-0.20;98322.00;;;;5128861;27;20929;-73
2022/01/24 11:26:12;;;;;;;15.30;9.50;;;0.20;99.90;-0.10;98324.00;;;;5103369;28;20421;-73
2022/01/24 11:29:03;;;;;;;17.70;11.50;;;0.20;99.90;-0.10;98320.00;;;;5117295;28;20433;-73
2022/01/24 11:32:04;;;;;;;14.90;11.10;;;0.20;99.90;-0.30;98306.00;;;;5119768;27;20512;-73
2022/01/24 11:34:55;;;;;;;17.23;10.87;;;0.10;99.90;-0.20;98319.00;;;;5126302;27;20765;-72
2022/01/24 11:37:46;;;;;;;15.73;10.07;;;0.10;99.90;-0.30;98323.00;;;;5102098;28;20764;-74
2022/01/24 11:40:47;;;;;;;16.37;11.87;;;0.10;99.90;-0.10;98327.00;;;;5102621;28;20948;-73
2022/01/24 11:43:39;;;;;;;18.83;10.50;;;0.10;99.90;-0.20;98332.00;;;;5102543;28;20424;-73
2022/01/24 11:46:42;;;;;;;17.90;11.43;;;0.10;99.90;-0.20;98323.00;;;;5101730;28;20421;-74
2022/01/24 11:49:36;;;;;;;17.73;12.57;;;0.10;99.90;-0.20;98320.00;;;;5101925;28;20485;-74
2022/01/24 11:52:32;;;;;;;14.15;12.35;;;0.10;99.90;-0.10;98325.00;;;;5102059;28;21034;-74
2022/01/24 11:55:36;;;;;;;14.60;10.07;;;0.10;99.90;-0.20;98309.00;;;;5108961;28;20424;-73
2022/01/24 11:58:29;;;;;;;16.50;12.75;;;0.10;99.90;-0.40;98313.00;;;;5106670;28;20424;-73
2022/01/24 12:01:39;;;;;;;19.37;10.37;;;0.10;99.90;-0.30;98318.00;;;;5120157;28;20448;-72
2022/01/24 12:04:55;;;;;;;19.10;11.67;;;0.10;99.90;-0.30;98311.00;;;;5103101;28;20421;-73
2022/01/24 12:07:47;;;;;;;13.97;10.27;;;0.00;99.90;-0.30;98315.00;;;;5100895;28;20425;-73
2022/01/24 12:10:47;;;;;;;20.70;12.43;;;0.00;99.90;-0.30;98306.00;;;;5103175;28;20479;-73
2022/01/24 12:13:43;;;;;;;16.63;11.07;;;0.00;99.90;-0.20;98308.00;;;;5118105;28;20922;-73
2022/01/24 12:16:39;;;;;;;15.80;10.67;;;0.00;99.90;-0.10;98313.00;;;;5113467;28;20447;-73
2022/01/24 12:19:31;;;;;;;19.07;11.50;;;0.10;99.90;-0.10;98310.00;;;;5108274;27;20433;-73
2022/01/24 12:22:37;;;;;;;18.23;12.47;;;0.10;99.90;0.00;98296.00;;;;5111885;27;20437;-74
2022/01/24 12:25:52;;;;;;;21.10;11.17;;;0.20;99.90;0.00;98304.00;;;;5116714;27;20510;-73
2022/01/24 12:28:50;;;;;;;18.60;12.23;;;0.20;99.90;0.00;98316.00;;;;5089418;28;20421;-73
2022/01/24 12:31:45;;;;;;;17.77;13.30;;;0.20;99.90;0.10;98323.00;;;;5088621;28;20876;-71
2022/01/24 12:34:41;;;;;;;22.83;12.83;;;0.20;99.90;0.10;98310.00;;;;5088303;28;20429;-72
2022/01/24 12:37:32;;;;;;;18.53;13.10;;;0.30;99.90;0.10;98319.00;;;;5088038;28;20434;-73
2022/01/24 12:40:27;;;;;;;21.43;13.50;;;0.30;99.90;0.10;98331.00;;;;5090101;28;20417;-73
2022/01/24 12:43:30;;;;;;;16.40;11.50;;;0.30;99.90;0.10;98315.00;;;;5100729;28;20927;-73
2022/01/24 12:46:21;;;;;;;15.20;11.43;;;0.30;99.90;0.10;98325.00;;;;5104647;28;20784;-74
2022/01/24 12:49:12;;;;;;;17.20;12.53;;;0.40;99.90;0.00;98312.00;;;;5099965;28;20429;-72
2022/01/24 12:52:02;;;;;;;23.37;13.43;;;0.30;99.90;0.00;98306.00;;;;5088159;28;21011;-74
2022/01/24 12:54:56;;;;;;;17.77;14.03;;;0.70;99.90;0.10;98317.00;;;;5088435;28;20425;-75
2022/01/24 12:57:45;;;;;;;16.47;13.27;;;0.30;99.90;0.10;98310.00;;;;5088528;28;20425;-73
2022/01/24 13:00:34;;;;;;;16.53;11.40;;;0.30;99.90;0.00;98309.00;;;;5095641;28;20424;-75
2022/01/24 13:03:23;;;;;;;20.23;14.40;;;0.40;99.90;-0.30;98304.00;;;;5093979;28;20417;-74
2022/01/24 13:06:17;;;;;;;17.97;14.03;;;0.30;99.90;-0.30;98291.00;;;;5107452;28;20443;-74
2022/01/24 13:09:15;;;;;;;19.40;13.67;;;0.30;99.90;-0.40;98289.00;;;;5107084;28;20447;-74
2022/01/24 13:12:09;;;;;;;17.73;13.23;;;0.20;99.90;-0.60;98295.00;;;;5088161;28;20469;-73
2022/01/24 13:15:03;;;;;;;19.70;14.93;;;0.10;99.90;-0.70;98295.00;;;;5108712;27;20713;-75
2022/01/24 13:21:17;;;;;;;22.23;13.60;;;0.00;99.90;-1.00;98280.00;;;;5114620;27;20461;-75
2022/01/24 13:24:07;;;;;;;18.17;13.57;;;-0.10;99.90;-0.90;98279.00;;;;5108461;27;20923;-74
2022/01/24 13:27:09;;;;;;;23.77;14.13;;;-0.10;99.90;-0.80;98289.00;;;;5091579;27;20426;-75
2022/01/24 13:29:58;;;;;;;19.67;13.03;;;-0.20;99.90;-0.80;98299.00;;;;5097870;28;20435;-72
2022/01/24 13:32:50;;;;;;;24.93;14.00;;;-0.20;99.90;-0.90;98287.00;;;;5099260;28;20457;-74
2022/01/24 13:35:41;;;;;;;20.80;14.70;;;-0.20;99.90;-0.70;98278.00;;;;5084847;28;20495;-73
2022/01/24 13:38:33;;;;;;;22.83;14.43;;;-0.20;99.90;-0.80;98280.00;;;;5085701;28;20491;-74
2022/01/24 13:41:25;;;;;;;31.10;20.07;;;-0.20;99.90;-0.70;98269.00;;;;5087276;28;20735;-73
2022/01/24 13:44:15;;;;;;;20.80;14.13;;;-0.20;99.90;-0.60;98268.00;;;;5095275;28;20413;-74
2022/01/24 13:47:10;;;;;;;28.20;15.67;;;-0.20;99.90;-0.40;98263.00;;;;5107106;28;20519;-73
2022/01/24 13:49:59;;;;;;;25.97;14.23;;;-0.10;99.90;-0.40;98262.00;;;;5107198;28;20986;-74